<?xml version="1.0" encoding="UTF-8" standalone="no" ?>
<gpx xmlns="http://www.topografix.com/GPX/1/1" xmlns:xsi="http://www.w3.org/2001/XMLSchema-instance" xsi:schemaLocation="http://www.topografix.com/GPX/1/1 http://www.topografix.com/GPX/1/1/gpx.xsd" version="1.1" creator="VisuGPX - https://www.visugpx.com">
  <metadata>
    <name>le chateau de Fey</name>
    <desc><![CDATA[[img][/img]Prépa séjour]]></desc>
  </metadata>
  <wpt lat="48.03089" lon="3.3373">
    <ele>195.35546875</ele>
    <name><![CDATA[Accès Gr 213 - Villevallier]]></name>
    <type><![CDATA[user]]></type>
  </wpt>
  <wpt lat="48.02599" lon="3.32533">
    <ele>156.734375</ele>
    <name><![CDATA[Accès Gr 213 - Villevallier1]]></name>
    <type><![CDATA[user]]></type>
  </wpt>
  <wpt lat="48.01494" lon="3.33099">
    <ele>185.921875</ele>
    <name><![CDATA[Allée et Le Chateau Du Fey et Chemin]]></name>
    <type><![CDATA[user]]></type>
  </wpt>
  <wpt lat="48.02348" lon="3.31113">
    <ele>74.04296875</ele>
    <name><![CDATA[Che Du Halage et R Des Petites Vignes]]></name>
    <type><![CDATA[user]]></type>
  </wpt>
  <wpt lat="48.04533" lon="3.32404">
    <ele>75.94140625</ele>
    <name><![CDATA[R de la Foret D'Othe et Imp Du Presbytere]]></name>
    <type><![CDATA[user]]></type>
  </wpt>
  <trk>
    <name><![CDATA[le chateau de Fey]]></name>
    <trkseg>
      <trkpt lat="48.0458" lon="3.31968">
        <ele>73.144531</ele>
        <time>2017-06-29T15:35:07Z</time>
      </trkpt>
      <trkpt lat="48.04575" lon="3.31973">
        <ele>73.058594</ele>
        <time>2017-06-29T15:37:07Z</time>
      </trkpt>
      <trkpt lat="48.04569" lon="3.3198">
        <ele>73</ele>
        <time>2017-06-29T15:39:07Z</time>
      </trkpt>
      <trkpt lat="48.04546" lon="3.32003">
        <ele>73</ele>
        <time>2017-06-29T15:41:07Z</time>
      </trkpt>
      <trkpt lat="48.04514" lon="3.32037">
        <ele>73</ele>
        <time>2017-06-29T15:43:07Z</time>
      </trkpt>
      <trkpt lat="48.04498" lon="3.32007">
        <ele>73</ele>
        <time>2017-06-29T15:45:07Z</time>
      </trkpt>
      <trkpt lat="48.04496" lon="3.32005">
        <ele>73</ele>
        <time>2017-06-29T15:47:07Z</time>
      </trkpt>
      <trkpt lat="48.04433" lon="3.32084">
        <ele>73.519531</ele>
        <time>2017-06-29T15:49:07Z</time>
      </trkpt>
      <trkpt lat="48.04398" lon="3.32132">
        <ele>74</ele>
        <time>2017-06-29T15:51:07Z</time>
      </trkpt>
      <trkpt lat="48.04415" lon="3.32158">
        <ele>73.832031</ele>
        <time>2017-06-29T15:53:07Z</time>
      </trkpt>
      <trkpt lat="48.04467" lon="3.32264">
        <ele>73.464844</ele>
        <time>2017-06-29T15:55:07Z</time>
      </trkpt>
      <trkpt lat="48.04465" lon="3.32268">
        <ele>73.496094</ele>
        <time>2017-06-29T15:57:07Z</time>
      </trkpt>
      <trkpt lat="48.04492" lon="3.32318">
        <ele>74.375</ele>
        <time>2017-06-29T15:59:07Z</time>
      </trkpt>
      <trkpt lat="48.04511" lon="3.32358">
        <ele>75.082031</ele>
        <time>2017-06-29T16:01:07Z</time>
      </trkpt>
      <trkpt lat="48.04526" lon="3.32388">
        <ele>75.695312</ele>
        <time>2017-06-29T16:03:07Z</time>
      </trkpt>
      <trkpt lat="48.04533" lon="3.32404">
        <ele>75.9375</ele>
        <time>2017-06-29T16:05:07Z</time>
      </trkpt>
      <trkpt lat="48.04546" lon="3.32444">
        <ele>76.296875</ele>
        <time>2017-06-29T16:07:07Z</time>
      </trkpt>
      <trkpt lat="48.04556" lon="3.32476">
        <ele>76.566406</ele>
        <time>2017-06-29T16:09:07Z</time>
      </trkpt>
      <trkpt lat="48.04499" lon="3.32517">
        <ele>78.585938</ele>
        <time>2017-06-29T16:11:07Z</time>
      </trkpt>
      <trkpt lat="48.04493" lon="3.32529">
        <ele>79.058594</ele>
        <time>2017-06-29T16:13:07Z</time>
      </trkpt>
      <trkpt lat="48.04493" lon="3.32547">
        <ele>80.050781</ele>
        <time>2017-06-29T16:15:07Z</time>
      </trkpt>
      <trkpt lat="48.04497" lon="3.32559">
        <ele>80.792969</ele>
        <time>2017-06-29T16:17:07Z</time>
      </trkpt>
      <trkpt lat="48.04441" lon="3.32794">
        <ele>101.332031</ele>
        <time>2017-06-29T16:19:07Z</time>
      </trkpt>
      <trkpt lat="48.04404" lon="3.32836">
        <ele>105.726562</ele>
        <time>2017-06-29T16:21:07Z</time>
      </trkpt>
      <trkpt lat="48.04343" lon="3.32901">
        <ele>114.175781</ele>
        <time>2017-06-29T16:23:07Z</time>
      </trkpt>
      <trkpt lat="48.04338" lon="3.3291">
        <ele>115.507812</ele>
        <time>2017-06-29T16:25:07Z</time>
      </trkpt>
      <trkpt lat="48.04332" lon="3.32919">
        <ele>116.660156</ele>
        <time>2017-06-29T16:27:07Z</time>
      </trkpt>
      <trkpt lat="48.04311" lon="3.32965">
        <ele>123.558594</ele>
        <time>2017-06-29T16:29:07Z</time>
      </trkpt>
      <trkpt lat="48.04301" lon="3.32992">
        <ele>126.902344</ele>
        <time>2017-06-29T16:31:07Z</time>
      </trkpt>
      <trkpt lat="48.04287" lon="3.33019">
        <ele>129.976562</ele>
        <time>2017-06-29T16:33:07Z</time>
      </trkpt>
      <trkpt lat="48.04267" lon="3.33051">
        <ele>132.039062</ele>
      </trkpt>
      <trkpt lat="48.04243" lon="3.3308">
        <ele>134</ele>
      </trkpt>
      <trkpt lat="48.04222" lon="3.331">
        <ele>136.042969</ele>
      </trkpt>
      <trkpt lat="48.04209" lon="3.3311">
        <ele>137.082031</ele>
      </trkpt>
      <trkpt lat="48.04174" lon="3.33128">
        <ele>139.652344</ele>
      </trkpt>
      <trkpt lat="48.04153" lon="3.33139">
        <ele>141.417969</ele>
      </trkpt>
      <trkpt lat="48.04114" lon="3.33162">
        <ele>146.253906</ele>
        <time>2017-06-29T16:35:07Z</time>
      </trkpt>
      <trkpt lat="48.04076" lon="3.33184">
        <ele>152.386719</ele>
        <time>2017-06-29T16:37:07Z</time>
      </trkpt>
      <trkpt lat="48.04028" lon="3.33218">
        <ele>156.957031</ele>
        <time>2017-06-29T16:39:07Z</time>
      </trkpt>
      <trkpt lat="48.03977" lon="3.33251">
        <ele>159.890625</ele>
        <time>2017-06-29T16:41:07Z</time>
      </trkpt>
      <trkpt lat="48.03916" lon="3.33282">
        <ele>161.203125</ele>
        <time>2017-06-29T16:43:07Z</time>
      </trkpt>
      <trkpt lat="48.03892" lon="3.33289">
        <ele>162.539062</ele>
        <time>2017-06-29T16:45:07Z</time>
      </trkpt>
      <trkpt lat="48.03848" lon="3.33312">
        <ele>165.957031</ele>
        <time>2017-06-29T16:47:07Z</time>
      </trkpt>
      <trkpt lat="48.03825" lon="3.33322">
        <ele>167.484375</ele>
        <time>2017-06-29T16:49:07Z</time>
      </trkpt>
      <trkpt lat="48.03808" lon="3.33328">
        <ele>168.660156</ele>
        <time>2017-06-29T16:51:07Z</time>
      </trkpt>
      <trkpt lat="48.0377" lon="3.33338">
        <ele>171.179688</ele>
        <time>2017-06-29T16:53:07Z</time>
      </trkpt>
      <trkpt lat="48.03746" lon="3.33343">
        <ele>172.800781</ele>
        <time>2017-06-29T16:55:07Z</time>
      </trkpt>
      <trkpt lat="48.037" lon="3.33347">
        <ele>175.589844</ele>
        <time>2017-06-29T16:57:07Z</time>
      </trkpt>
      <trkpt lat="48.03698" lon="3.33348">
        <ele>175.792969</ele>
        <time>2017-06-29T16:59:07Z</time>
      </trkpt>
      <trkpt lat="48.03645" lon="3.33355">
        <ele>178.519531</ele>
        <time>2017-06-29T17:01:07Z</time>
      </trkpt>
      <trkpt lat="48.03618" lon="3.33359">
        <ele>179.933594</ele>
        <time>2017-06-29T17:03:07Z</time>
      </trkpt>
      <trkpt lat="48.03588" lon="3.33363">
        <ele>181.742188</ele>
        <time>2017-06-29T17:05:07Z</time>
      </trkpt>
      <trkpt lat="48.03569" lon="3.33368">
        <ele>182.988281</ele>
        <time>2017-06-29T17:07:07Z</time>
      </trkpt>
      <trkpt lat="48.03539" lon="3.33381">
        <ele>184.777344</ele>
        <time>2017-06-29T17:09:07Z</time>
      </trkpt>
      <trkpt lat="48.03502" lon="3.33399">
        <ele>186.800781</ele>
        <time>2017-06-29T17:11:07Z</time>
      </trkpt>
      <trkpt lat="48.03463" lon="3.33416">
        <ele>188.128906</ele>
        <time>2017-06-29T17:13:07Z</time>
      </trkpt>
      <trkpt lat="48.03427" lon="3.33431">
        <ele>189.921875</ele>
        <time>2017-06-29T17:15:07Z</time>
      </trkpt>
      <trkpt lat="48.03412" lon="3.33439">
        <ele>190.84375</ele>
        <time>2017-06-29T17:17:07Z</time>
      </trkpt>
      <trkpt lat="48.03358" lon="3.33477">
        <ele>193.992188</ele>
        <time>2017-06-29T17:19:07Z</time>
      </trkpt>
      <trkpt lat="48.03332" lon="3.33498">
        <ele>194.847656</ele>
        <time>2017-06-29T17:21:07Z</time>
      </trkpt>
      <trkpt lat="48.03306" lon="3.33527">
        <ele>195.949219</ele>
        <time>2017-06-29T17:23:07Z</time>
      </trkpt>
      <trkpt lat="48.03287" lon="3.33549">
        <ele>196.46875</ele>
        <time>2017-06-29T17:25:07Z</time>
      </trkpt>
      <trkpt lat="48.03265" lon="3.33567">
        <ele>196.796875</ele>
        <time>2017-06-29T17:27:07Z</time>
      </trkpt>
      <trkpt lat="48.03233" lon="3.33595">
        <ele>196.917969</ele>
        <time>2017-06-29T17:29:07Z</time>
      </trkpt>
      <trkpt lat="48.03195" lon="3.33629">
        <ele>196.984375</ele>
        <time>2017-06-29T17:31:07Z</time>
      </trkpt>
      <trkpt lat="48.03105" lon="3.33716">
        <ele>195.667969</ele>
        <time>2017-06-29T17:33:07Z</time>
      </trkpt>
      <trkpt lat="48.03057" lon="3.33759">
        <ele>195.035156</ele>
        <time>2017-06-29T17:35:07Z</time>
      </trkpt>
      <trkpt lat="48.0304" lon="3.3374">
        <ele>194.359375</ele>
        <time>2017-06-29T17:37:07Z</time>
      </trkpt>
      <trkpt lat="48.03022" lon="3.3372">
        <ele>193.699219</ele>
        <time>2017-06-29T17:39:07Z</time>
      </trkpt>
      <trkpt lat="48.0299" lon="3.33685">
        <ele>191.972656</ele>
        <time>2017-06-29T17:41:07Z</time>
      </trkpt>
      <trkpt lat="48.02969" lon="3.33661">
        <ele>190.347656</ele>
        <time>2017-06-29T17:43:07Z</time>
      </trkpt>
      <trkpt lat="48.02953" lon="3.33646">
        <ele>189.753906</ele>
        <time>2017-06-29T17:45:07Z</time>
      </trkpt>
      <trkpt lat="48.02933" lon="3.33622">
        <ele>189.21875</ele>
        <time>2017-06-29T17:47:07Z</time>
      </trkpt>
      <trkpt lat="48.02913" lon="3.33597">
        <ele>188.703125</ele>
        <time>2017-06-29T17:49:07Z</time>
      </trkpt>
      <trkpt lat="48.02886" lon="3.33566">
        <ele>188.332031</ele>
        <time>2017-06-29T17:51:07Z</time>
      </trkpt>
      <trkpt lat="48.0284" lon="3.33514">
        <ele>188.425781</ele>
        <time>2017-06-29T17:53:07Z</time>
      </trkpt>
      <trkpt lat="48.02822" lon="3.33463">
        <ele>187.527344</ele>
        <time>2017-06-29T17:55:07Z</time>
      </trkpt>
      <trkpt lat="48.02811" lon="3.33428">
        <ele>186.078125</ele>
        <time>2017-06-29T17:57:07Z</time>
      </trkpt>
      <trkpt lat="48.02796" lon="3.33373">
        <ele>184.117188</ele>
        <time>2017-06-29T17:59:07Z</time>
      </trkpt>
      <trkpt lat="48.02778" lon="3.33307">
        <ele>180.769531</ele>
        <time>2017-06-29T18:01:07Z</time>
      </trkpt>
      <trkpt lat="48.02765" lon="3.33259">
        <ele>178.316406</ele>
        <time>2017-06-29T18:03:07Z</time>
      </trkpt>
      <trkpt lat="48.02755" lon="3.33221">
        <ele>176.875</ele>
        <time>2017-06-29T18:05:07Z</time>
      </trkpt>
      <trkpt lat="48.02739" lon="3.33163">
        <ele>175.945312</ele>
        <time>2017-06-29T18:07:07Z</time>
      </trkpt>
      <trkpt lat="48.02717" lon="3.33083">
        <ele>174.703125</ele>
        <time>2017-06-29T18:09:07Z</time>
      </trkpt>
      <trkpt lat="48.02708" lon="3.3305">
        <ele>174.605469</ele>
        <time>2017-06-29T18:11:07Z</time>
      </trkpt>
      <trkpt lat="48.02689" lon="3.32976">
        <ele>175.511719</ele>
        <time>2017-06-29T18:13:07Z</time>
      </trkpt>
      <trkpt lat="48.02669" lon="3.32898">
        <ele>175.171875</ele>
        <time>2017-06-29T18:15:07Z</time>
      </trkpt>
      <trkpt lat="48.0266" lon="3.32862">
        <ele>174.601562</ele>
        <time>2017-06-29T18:17:07Z</time>
      </trkpt>
      <trkpt lat="48.0263" lon="3.32765">
        <ele>173.515625</ele>
        <time>2017-06-29T18:19:07Z</time>
      </trkpt>
      <trkpt lat="48.02611" lon="3.32701">
        <ele>171.695312</ele>
        <time>2017-06-29T18:21:07Z</time>
      </trkpt>
      <trkpt lat="48.02582" lon="3.32619">
        <ele>168.179688</ele>
        <time>2017-06-29T18:23:07Z</time>
      </trkpt>
      <trkpt lat="48.02565" lon="3.32568">
        <ele>166.011719</ele>
        <time>2017-06-29T18:25:07Z</time>
      </trkpt>
      <trkpt lat="48.02542" lon="3.32591">
        <ele>172.015625</ele>
        <time>2017-06-29T18:27:07Z</time>
      </trkpt>
      <trkpt lat="48.02512" lon="3.32623">
        <ele>178.960938</ele>
        <time>2017-06-29T18:29:07Z</time>
      </trkpt>
      <trkpt lat="48.02482" lon="3.32655">
        <ele>182.390625</ele>
        <time>2017-06-29T18:31:07Z</time>
      </trkpt>
      <trkpt lat="48.02453" lon="3.32685">
        <ele>183.980469</ele>
        <time>2017-06-29T18:33:07Z</time>
      </trkpt>
      <trkpt lat="48.02421" lon="3.3272">
        <ele>184.605469</ele>
        <time>2017-06-29T18:35:07Z</time>
      </trkpt>
      <trkpt lat="48.02389" lon="3.32757">
        <ele>185.191406</ele>
        <time>2017-06-29T18:37:07Z</time>
      </trkpt>
      <trkpt lat="48.02373" lon="3.32776">
        <ele>185.238281</ele>
        <time>2017-06-29T18:39:07Z</time>
      </trkpt>
      <trkpt lat="48.02361" lon="3.32791">
        <ele>185.148438</ele>
        <time>2017-06-29T18:41:07Z</time>
      </trkpt>
      <trkpt lat="48.02344" lon="3.3281">
        <ele>184.863281</ele>
        <time>2017-06-29T18:43:07Z</time>
      </trkpt>
      <trkpt lat="48.02285" lon="3.32875">
        <ele>184.324219</ele>
        <time>2017-06-29T18:45:07Z</time>
      </trkpt>
      <trkpt lat="48.02288" lon="3.329">
        <ele>184.726562</ele>
        <time>2017-06-29T18:47:07Z</time>
      </trkpt>
      <trkpt lat="48.02301" lon="3.32946">
        <ele>185.085938</ele>
        <time>2017-06-29T18:49:07Z</time>
      </trkpt>
      <trkpt lat="48.02304" lon="3.32962">
        <ele>185.140625</ele>
        <time>2017-06-29T18:51:07Z</time>
      </trkpt>
      <trkpt lat="48.023" lon="3.32976">
        <ele>185.304688</ele>
        <time>2017-06-29T18:53:07Z</time>
      </trkpt>
      <trkpt lat="48.02302" lon="3.32981">
        <ele>185.433594</ele>
        <time>2017-06-29T18:55:07Z</time>
      </trkpt>
      <trkpt lat="48.02304" lon="3.32994">
        <ele>185.761719</ele>
        <time>2017-06-29T18:57:07Z</time>
      </trkpt>
      <trkpt lat="48.02309" lon="3.33369">
        <ele>192.460938</ele>
        <time>2017-06-29T18:59:07Z</time>
      </trkpt>
      <trkpt lat="48.02309" lon="3.33435">
        <ele>193.109375</ele>
        <time>2017-06-29T19:01:07Z</time>
      </trkpt>
      <trkpt lat="48.02291" lon="3.33438">
        <ele>192.953125</ele>
        <time>2017-06-29T19:03:07Z</time>
      </trkpt>
      <trkpt lat="48.02245" lon="3.33442">
        <ele>192.644531</ele>
        <time>2017-06-29T19:05:07Z</time>
      </trkpt>
      <trkpt lat="48.02197" lon="3.33447">
        <ele>191.914062</ele>
        <time>2017-06-29T19:07:07Z</time>
      </trkpt>
      <trkpt lat="48.02157" lon="3.33447">
        <ele>191.34375</ele>
        <time>2017-06-29T19:09:07Z</time>
      </trkpt>
      <trkpt lat="48.02088" lon="3.33453">
        <ele>189.492188</ele>
        <time>2017-06-29T19:11:07Z</time>
      </trkpt>
      <trkpt lat="48.02042" lon="3.33458">
        <ele>187.84375</ele>
        <time>2017-06-29T19:13:07Z</time>
      </trkpt>
      <trkpt lat="48.01987" lon="3.33464">
        <ele>185.84375</ele>
        <time>2017-06-29T19:15:07Z</time>
      </trkpt>
      <trkpt lat="48.01919" lon="3.33466">
        <ele>181.640625</ele>
        <time>2017-06-29T19:17:07Z</time>
      </trkpt>
      <trkpt lat="48.01903" lon="3.33459">
        <ele>181.019531</ele>
        <time>2017-06-29T19:19:07Z</time>
      </trkpt>
      <trkpt lat="48.01877" lon="3.3344">
        <ele>181.101562</ele>
        <time>2017-06-29T19:21:07Z</time>
      </trkpt>
      <trkpt lat="48.01862" lon="3.33433">
        <ele>181.089844</ele>
        <time>2017-06-29T19:23:07Z</time>
      </trkpt>
      <trkpt lat="48.01854" lon="3.33431">
        <ele>180.988281</ele>
        <time>2017-06-29T19:25:07Z</time>
      </trkpt>
      <trkpt lat="48.01845" lon="3.33446">
        <ele>179.625</ele>
        <time>2017-06-29T19:27:07Z</time>
      </trkpt>
      <trkpt lat="48.01829" lon="3.33488">
        <ele>175.753906</ele>
        <time>2017-06-29T19:29:07Z</time>
      </trkpt>
      <trkpt lat="48.0181" lon="3.33526">
        <ele>171.753906</ele>
        <time>2017-06-29T19:31:07Z</time>
      </trkpt>
      <trkpt lat="48.01792" lon="3.33527">
        <ele>172.34375</ele>
        <time>2017-06-29T19:33:07Z</time>
      </trkpt>
      <trkpt lat="48.01784" lon="3.33532">
        <ele>172.320312</ele>
        <time>2017-06-29T19:35:07Z</time>
      </trkpt>
      <trkpt lat="48.01762" lon="3.33552">
        <ele>171.335938</ele>
        <time>2017-06-29T19:37:07Z</time>
      </trkpt>
      <trkpt lat="48.01756" lon="3.33554">
        <ele>171.496094</ele>
        <time>2017-06-29T19:39:07Z</time>
      </trkpt>
      <trkpt lat="48.01749" lon="3.33554">
        <ele>172.011719</ele>
        <time>2017-06-29T19:41:07Z</time>
      </trkpt>
      <trkpt lat="48.01743" lon="3.33548">
        <ele>173.171875</ele>
        <time>2017-06-29T19:43:07Z</time>
      </trkpt>
      <trkpt lat="48.01476" lon="3.33154">
        <ele>184.113281</ele>
        <time>2017-06-29T19:45:07Z</time>
      </trkpt>
      <trkpt lat="48.0147" lon="3.33141">
        <ele>184.082031</ele>
        <time>2017-06-29T19:47:07Z</time>
      </trkpt>
      <trkpt lat="48.01473" lon="3.33128">
        <ele>184.441406</ele>
        <time>2017-06-29T19:49:07Z</time>
      </trkpt>
      <trkpt lat="48.01499" lon="3.33094">
        <ele>186.15625</ele>
        <time>2017-06-29T19:51:07Z</time>
      </trkpt>
      <trkpt lat="48.01508" lon="3.33077">
        <ele>186.765625</ele>
        <time>2017-06-29T19:53:07Z</time>
      </trkpt>
      <trkpt lat="48.01513" lon="3.33068">
        <ele>187.003906</ele>
        <time>2017-06-29T19:55:07Z</time>
      </trkpt>
      <trkpt lat="48.01531" lon="3.33044">
        <ele>187.769531</ele>
        <time>2017-06-29T19:57:07Z</time>
      </trkpt>
      <trkpt lat="48.01545" lon="3.33023">
        <ele>188.402344</ele>
        <time>2017-06-29T19:59:07Z</time>
      </trkpt>
      <trkpt lat="48.0156" lon="3.33001">
        <ele>188.742188</ele>
        <time>2017-06-29T20:01:07Z</time>
      </trkpt>
      <trkpt lat="48.01579" lon="3.32971">
        <ele>189</ele>
        <time>2017-06-29T20:03:07Z</time>
      </trkpt>
      <trkpt lat="48.01603" lon="3.32937">
        <ele>189</ele>
        <time>2017-06-29T20:05:07Z</time>
      </trkpt>
      <trkpt lat="48.01627" lon="3.32893">
        <ele>189</ele>
        <time>2017-06-29T20:07:07Z</time>
      </trkpt>
      <trkpt lat="48.01642" lon="3.32862">
        <ele>188.785156</ele>
        <time>2017-06-29T20:09:07Z</time>
      </trkpt>
      <trkpt lat="48.01672" lon="3.32802">
        <ele>188.242188</ele>
        <time>2017-06-29T20:11:07Z</time>
      </trkpt>
      <trkpt lat="48.01699" lon="3.32739">
        <ele>186.707031</ele>
        <time>2017-06-29T20:13:07Z</time>
      </trkpt>
      <trkpt lat="48.01769" lon="3.32593">
        <ele>184.15625</ele>
        <time>2017-06-29T20:15:07Z</time>
      </trkpt>
      <trkpt lat="48.01793" lon="3.32542">
        <ele>182.535156</ele>
        <time>2017-06-29T20:17:07Z</time>
      </trkpt>
      <trkpt lat="48.01825" lon="3.3249">
        <ele>178.949219</ele>
        <time>2017-06-29T20:19:07Z</time>
      </trkpt>
      <trkpt lat="48.01834" lon="3.32479">
        <ele>177.894531</ele>
        <time>2017-06-29T20:21:07Z</time>
      </trkpt>
      <trkpt lat="48.01848" lon="3.32466">
        <ele>176.402344</ele>
        <time>2017-06-29T20:23:07Z</time>
      </trkpt>
      <trkpt lat="48.01859" lon="3.32453">
        <ele>173.929688</ele>
        <time>2017-06-29T20:25:07Z</time>
      </trkpt>
      <trkpt lat="48.01876" lon="3.32419">
        <ele>168.351562</ele>
        <time>2017-06-29T20:27:07Z</time>
      </trkpt>
      <trkpt lat="48.01894" lon="3.32353">
        <ele>162.425781</ele>
        <time>2017-06-29T20:29:07Z</time>
      </trkpt>
      <trkpt lat="48.01905" lon="3.32298">
        <ele>159.367188</ele>
        <time>2017-06-29T20:31:07Z</time>
      </trkpt>
      <trkpt lat="48.01928" lon="3.32237">
        <ele>155.121094</ele>
        <time>2017-06-29T20:33:07Z</time>
      </trkpt>
      <trkpt lat="48.01955" lon="3.32184">
        <ele>149.289062</ele>
        <time>2017-06-29T20:35:07Z</time>
      </trkpt>
      <trkpt lat="48.01986" lon="3.32038">
        <ele>138.253906</ele>
        <time>2017-06-29T20:37:07Z</time>
      </trkpt>
      <trkpt lat="48.01976" lon="3.31993">
        <ele>136.53125</ele>
        <time>2017-06-29T20:39:07Z</time>
      </trkpt>
      <trkpt lat="48.01975" lon="3.31956">
        <ele>134.222656</ele>
        <time>2017-06-29T20:41:07Z</time>
      </trkpt>
      <trkpt lat="48.0201" lon="3.3189">
        <ele>126.957031</ele>
        <time>2017-06-29T20:43:07Z</time>
      </trkpt>
      <trkpt lat="48.02033" lon="3.31844">
        <ele>121.980469</ele>
        <time>2017-06-29T20:45:07Z</time>
      </trkpt>
      <trkpt lat="48.02047" lon="3.31831">
        <ele>120.019531</ele>
        <time>2017-06-29T20:47:07Z</time>
      </trkpt>
      <trkpt lat="48.02088" lon="3.31812">
        <ele>114.800781</ele>
        <time>2017-06-29T20:49:07Z</time>
      </trkpt>
      <trkpt lat="48.0211" lon="3.31803">
        <ele>112.277344</ele>
        <time>2017-06-29T20:51:07Z</time>
      </trkpt>
      <trkpt lat="48.02145" lon="3.31783">
        <ele>109.234375</ele>
        <time>2017-06-29T20:53:07Z</time>
      </trkpt>
      <trkpt lat="48.02185" lon="3.31752">
        <ele>105.707031</ele>
        <time>2017-06-29T20:55:07Z</time>
      </trkpt>
      <trkpt lat="48.02215" lon="3.31699">
        <ele>103.734375</ele>
        <time>2017-06-29T20:57:07Z</time>
      </trkpt>
      <trkpt lat="48.02284" lon="3.31583">
        <ele>96.214844</ele>
        <time>2017-06-29T20:59:07Z</time>
      </trkpt>
      <trkpt lat="48.0231" lon="3.31535">
        <ele>93.832031</ele>
        <time>2017-06-29T21:01:07Z</time>
      </trkpt>
      <trkpt lat="48.02337" lon="3.31504">
        <ele>92.019531</ele>
        <time>2017-06-29T21:03:07Z</time>
      </trkpt>
      <trkpt lat="48.02341" lon="3.31495">
        <ele>91.566406</ele>
        <time>2017-06-29T21:05:07Z</time>
      </trkpt>
      <trkpt lat="48.02355" lon="3.31509">
        <ele>91.476562</ele>
        <time>2017-06-29T21:07:07Z</time>
      </trkpt>
      <trkpt lat="48.02358" lon="3.315">
        <ele>91.042969</ele>
        <time>2017-06-29T21:09:07Z</time>
      </trkpt>
      <trkpt lat="48.02359" lon="3.3149">
        <ele>90.636719</ele>
        <time>2017-06-29T21:11:07Z</time>
      </trkpt>
      <trkpt lat="48.02359" lon="3.31472">
        <ele>89.996094</ele>
        <time>2017-06-29T21:13:07Z</time>
      </trkpt>
      <trkpt lat="48.02358" lon="3.31463">
        <ele>89.773438</ele>
        <time>2017-06-29T21:15:07Z</time>
      </trkpt>
      <trkpt lat="48.02358" lon="3.31453">
        <ele>89.730469</ele>
        <time>2017-06-29T21:17:07Z</time>
      </trkpt>
      <trkpt lat="48.02364" lon="3.31441">
        <ele>89.367188</ele>
      </trkpt>
      <trkpt lat="48.0238" lon="3.31414">
        <ele>88.050781</ele>
      </trkpt>
      <trkpt lat="48.02368" lon="3.31403">
        <ele>88.546875</ele>
      </trkpt>
      <trkpt lat="48.02364" lon="3.31398">
        <ele>88.539062</ele>
      </trkpt>
      <trkpt lat="48.02367" lon="3.3139">
        <ele>87.910156</ele>
      </trkpt>
      <trkpt lat="48.02383" lon="3.31357">
        <ele>85.457031</ele>
      </trkpt>
      <trkpt lat="48.02391" lon="3.31343">
        <ele>84.296875</ele>
      </trkpt>
      <trkpt lat="48.02406" lon="3.31309">
        <ele>81.65625</ele>
      </trkpt>
      <trkpt lat="48.02417" lon="3.31278">
        <ele>79.167969</ele>
      </trkpt>
      <trkpt lat="48.0242" lon="3.31272">
        <ele>78.667969</ele>
      </trkpt>
      <trkpt lat="48.02421" lon="3.31268">
        <ele>78.34375</ele>
      </trkpt>
      <trkpt lat="48.02424" lon="3.31254">
        <ele>77.390625</ele>
      </trkpt>
      <trkpt lat="48.02433" lon="3.31226">
        <ele>75.929688</ele>
      </trkpt>
      <trkpt lat="48.02441" lon="3.31201">
        <ele>74.890625</ele>
      </trkpt>
      <trkpt lat="48.02443" lon="3.3119">
        <ele>74.453125</ele>
      </trkpt>
      <trkpt lat="48.02406" lon="3.31165">
        <ele>74.226562</ele>
      </trkpt>
      <trkpt lat="48.02375" lon="3.31144">
        <ele>74.039062</ele>
      </trkpt>
      <trkpt lat="48.02365" lon="3.31138">
        <ele>74.003906</ele>
      </trkpt>
      <trkpt lat="48.02349" lon="3.3113">
        <ele>74.046875</ele>
      </trkpt>
      <trkpt lat="48.02349" lon="3.31117">
        <ele>74.035156</ele>
      </trkpt>
      <trkpt lat="48.02348" lon="3.31113">
        <ele>74.046875</ele>
      </trkpt>
      <trkpt lat="48.02358" lon="3.31115">
        <ele>73.882812</ele>
        <time>2017-06-29T21:19:07Z</time>
      </trkpt>
      <trkpt lat="48.02377" lon="3.31119">
        <ele>73.539062</ele>
        <time>2017-06-29T21:21:07Z</time>
      </trkpt>
      <trkpt lat="48.02399" lon="3.31121">
        <ele>73.15625</ele>
        <time>2017-06-29T21:23:07Z</time>
      </trkpt>
      <trkpt lat="48.02442" lon="3.31122">
        <ele>73</ele>
        <time>2017-06-29T21:25:07Z</time>
      </trkpt>
      <trkpt lat="48.02479" lon="3.31124">
        <ele>73.300781</ele>
        <time>2017-06-29T21:27:07Z</time>
      </trkpt>
      <trkpt lat="48.02482" lon="3.31123">
        <ele>73.355469</ele>
        <time>2017-06-29T21:29:07Z</time>
      </trkpt>
      <trkpt lat="48.02495" lon="3.31124">
        <ele>73.585938</ele>
        <time>2017-06-29T21:31:07Z</time>
      </trkpt>
      <trkpt lat="48.02503" lon="3.31124">
        <ele>73.722656</ele>
        <time>2017-06-29T21:33:07Z</time>
      </trkpt>
      <trkpt lat="48.02509" lon="3.31125">
        <ele>73.835938</ele>
      </trkpt>
      <trkpt lat="48.02515" lon="3.31127">
        <ele>73.949219</ele>
      </trkpt>
      <trkpt lat="48.02523" lon="3.31131">
        <ele>74</ele>
      </trkpt>
      <trkpt lat="48.02563" lon="3.31167">
        <ele>74</ele>
      </trkpt>
      <trkpt lat="48.02577" lon="3.31186">
        <ele>74</ele>
      </trkpt>
      <trkpt lat="48.0259" lon="3.31198">
        <ele>74</ele>
      </trkpt>
      <trkpt lat="48.02633" lon="3.31262">
        <ele>74</ele>
      </trkpt>
      <trkpt lat="48.0265" lon="3.31288">
        <ele>74</ele>
        <time>2017-06-29T21:35:07Z</time>
      </trkpt>
      <trkpt lat="48.02678" lon="3.31333">
        <ele>74.078125</ele>
        <time>2017-06-29T21:37:07Z</time>
      </trkpt>
      <trkpt lat="48.02713" lon="3.31385">
        <ele>74</ele>
        <time>2017-06-29T21:39:07Z</time>
      </trkpt>
      <trkpt lat="48.02745" lon="3.31433">
        <ele>73.5625</ele>
        <time>2017-06-29T21:41:07Z</time>
      </trkpt>
      <trkpt lat="48.02766" lon="3.31471">
        <ele>73</ele>
        <time>2017-06-29T21:43:07Z</time>
      </trkpt>
      <trkpt lat="48.02815" lon="3.31553">
        <ele>73.140625</ele>
        <time>2017-06-29T21:45:07Z</time>
      </trkpt>
      <trkpt lat="48.02842" lon="3.31595">
        <ele>73</ele>
        <time>2017-06-29T21:47:07Z</time>
      </trkpt>
      <trkpt lat="48.02857" lon="3.3162">
        <ele>73.097656</ele>
        <time>2017-06-29T21:49:07Z</time>
      </trkpt>
      <trkpt lat="48.02857" lon="3.31624">
        <ele>73.089844</ele>
        <time>2017-06-29T21:51:07Z</time>
      </trkpt>
      <trkpt lat="48.02873" lon="3.31645">
        <ele>73.390625</ele>
        <time>2017-06-29T21:53:07Z</time>
      </trkpt>
      <trkpt lat="48.02883" lon="3.31659">
        <ele>73.574219</ele>
      </trkpt>
      <trkpt lat="48.02898" lon="3.31683">
        <ele>73.847656</ele>
      </trkpt>
      <trkpt lat="48.02925" lon="3.31721">
        <ele>74.332031</ele>
      </trkpt>
      <trkpt lat="48.0294" lon="3.31739">
        <ele>74.589844</ele>
      </trkpt>
      <trkpt lat="48.02962" lon="3.31763">
        <ele>74.984375</ele>
      </trkpt>
      <trkpt lat="48.02991" lon="3.31793">
        <ele>75</ele>
      </trkpt>
      <trkpt lat="48.03001" lon="3.318">
        <ele>74.992188</ele>
      </trkpt>
      <trkpt lat="48.03016" lon="3.31807">
        <ele>74.992188</ele>
      </trkpt>
      <trkpt lat="48.03043" lon="3.31816">
        <ele>75</ele>
        <time>2017-06-29T21:55:07Z</time>
      </trkpt>
      <trkpt lat="48.03048" lon="3.31818">
        <ele>75</ele>
        <time>2017-06-29T21:57:07Z</time>
      </trkpt>
      <trkpt lat="48.03073" lon="3.31828">
        <ele>75</ele>
        <time>2017-06-29T21:59:07Z</time>
      </trkpt>
      <trkpt lat="48.03101" lon="3.3184">
        <ele>75</ele>
        <time>2017-06-29T22:01:07Z</time>
      </trkpt>
      <trkpt lat="48.03171" lon="3.31877">
        <ele>75</ele>
        <time>2017-06-29T22:03:07Z</time>
      </trkpt>
      <trkpt lat="48.03213" lon="3.31896">
        <ele>75</ele>
        <time>2017-06-29T22:05:07Z</time>
      </trkpt>
      <trkpt lat="48.0322" lon="3.319">
        <ele>75</ele>
        <time>2017-06-29T22:07:07Z</time>
      </trkpt>
      <trkpt lat="48.03263" lon="3.31916">
        <ele>75</ele>
        <time>2017-06-29T22:09:07Z</time>
      </trkpt>
      <trkpt lat="48.03312" lon="3.31933">
        <ele>75</ele>
        <time>2017-06-29T22:11:07Z</time>
      </trkpt>
      <trkpt lat="48.03335" lon="3.31939">
        <ele>75</ele>
        <time>2017-06-29T22:13:07Z</time>
      </trkpt>
      <trkpt lat="48.03352" lon="3.31944">
        <ele>75</ele>
        <time>2017-06-29T22:15:07Z</time>
      </trkpt>
      <trkpt lat="48.03399" lon="3.31951">
        <ele>75</ele>
      </trkpt>
      <trkpt lat="48.03416" lon="3.31953">
        <ele>75</ele>
      </trkpt>
      <trkpt lat="48.03444" lon="3.31955">
        <ele>75</ele>
      </trkpt>
      <trkpt lat="48.03465" lon="3.31955">
        <ele>75</ele>
      </trkpt>
      <trkpt lat="48.03471" lon="3.31954">
        <ele>75</ele>
      </trkpt>
      <trkpt lat="48.03485" lon="3.31954">
        <ele>75</ele>
        <time>2017-06-29T22:17:07Z</time>
      </trkpt>
      <trkpt lat="48.03509" lon="3.31952">
        <ele>75</ele>
        <time>2017-06-29T22:19:07Z</time>
      </trkpt>
      <trkpt lat="48.03525" lon="3.31951">
        <ele>75</ele>
        <time>2017-06-29T22:21:07Z</time>
      </trkpt>
      <trkpt lat="48.03547" lon="3.31949">
        <ele>75</ele>
        <time>2017-06-29T22:23:07Z</time>
      </trkpt>
      <trkpt lat="48.03565" lon="3.31947">
        <ele>75</ele>
        <time>2017-06-29T22:25:07Z</time>
      </trkpt>
      <trkpt lat="48.03583" lon="3.31946">
        <ele>74.9375</ele>
        <time>2017-06-29T22:27:07Z</time>
      </trkpt>
      <trkpt lat="48.03607" lon="3.31944">
        <ele>74.777344</ele>
        <time>2017-06-29T22:29:07Z</time>
      </trkpt>
      <trkpt lat="48.03637" lon="3.31941">
        <ele>74.429688</ele>
        <time>2017-06-29T22:31:07Z</time>
      </trkpt>
      <trkpt lat="48.0368" lon="3.31937">
        <ele>73.582031</ele>
        <time>2017-06-29T22:33:07Z</time>
      </trkpt>
      <trkpt lat="48.03728" lon="3.31933">
        <ele>73.089844</ele>
        <time>2017-06-29T22:35:07Z</time>
      </trkpt>
      <trkpt lat="48.0378" lon="3.3193">
        <ele>73</ele>
        <time>2017-06-29T22:37:07Z</time>
      </trkpt>
      <trkpt lat="48.03819" lon="3.31928">
        <ele>73</ele>
        <time>2017-06-29T22:39:07Z</time>
      </trkpt>
      <trkpt lat="48.03868" lon="3.31928">
        <ele>73</ele>
        <time>2017-06-29T22:41:07Z</time>
      </trkpt>
      <trkpt lat="48.03896" lon="3.31931">
        <ele>73</ele>
        <time>2017-06-29T22:43:07Z</time>
      </trkpt>
      <trkpt lat="48.04014" lon="3.31943">
        <ele>73</ele>
        <time>2017-06-29T22:45:07Z</time>
      </trkpt>
      <trkpt lat="48.04062" lon="3.31952">
        <ele>73</ele>
        <time>2017-06-29T22:47:07Z</time>
      </trkpt>
      <trkpt lat="48.04103" lon="3.31964">
        <ele>73</ele>
        <time>2017-06-29T22:49:07Z</time>
      </trkpt>
      <trkpt lat="48.04141" lon="3.31978">
        <ele>73</ele>
        <time>2017-06-29T22:51:07Z</time>
      </trkpt>
      <trkpt lat="48.04193" lon="3.32009">
        <ele>73.125</ele>
        <time>2017-06-29T22:53:07Z</time>
      </trkpt>
      <trkpt lat="48.04227" lon="3.3203">
        <ele>73.957031</ele>
        <time>2017-06-29T22:55:07Z</time>
      </trkpt>
      <trkpt lat="48.04265" lon="3.32051">
        <ele>74.558594</ele>
        <time>2017-06-29T22:57:07Z</time>
      </trkpt>
      <trkpt lat="48.04288" lon="3.32066">
        <ele>74.835938</ele>
        <time>2017-06-29T22:59:07Z</time>
      </trkpt>
      <trkpt lat="48.04297" lon="3.32072">
        <ele>74.945312</ele>
        <time>2017-06-29T23:01:07Z</time>
      </trkpt>
      <trkpt lat="48.04304" lon="3.32077">
        <ele>74.996094</ele>
        <time>2017-06-29T23:03:07Z</time>
      </trkpt>
      <trkpt lat="48.04318" lon="3.32085">
        <ele>74.925781</ele>
        <time>2017-06-29T23:05:07Z</time>
      </trkpt>
      <trkpt lat="48.04337" lon="3.32098">
        <ele>74.691406</ele>
        <time>2017-06-29T23:07:07Z</time>
      </trkpt>
      <trkpt lat="48.04357" lon="3.32106">
        <ele>74.398438</ele>
        <time>2017-06-29T23:09:07Z</time>
      </trkpt>
      <trkpt lat="48.04368" lon="3.32108">
        <ele>74.28125</ele>
        <time>2017-06-29T23:11:07Z</time>
      </trkpt>
      <trkpt lat="48.04378" lon="3.32109">
        <ele>74.195312</ele>
        <time>2017-06-29T23:13:07Z</time>
      </trkpt>
      <trkpt lat="48.04391" lon="3.32109">
        <ele>74.105469</ele>
        <time>2017-06-29T23:15:07Z</time>
      </trkpt>
      <trkpt lat="48.04392" lon="3.32107">
        <ele>74.113281</ele>
        <time>2017-06-29T23:17:07Z</time>
      </trkpt>
      <trkpt lat="48.04394" lon="3.32106">
        <ele>74.09375</ele>
        <time>2017-06-29T23:19:07Z</time>
      </trkpt>
      <trkpt lat="48.0442" lon="3.321">
        <ele>73.757812</ele>
        <time>2017-06-29T23:21:07Z</time>
      </trkpt>
      <trkpt lat="48.04463" lon="3.32047">
        <ele>73</ele>
        <time>2017-06-29T23:23:07Z</time>
      </trkpt>
      <trkpt lat="48.04496" lon="3.32005">
        <ele>73</ele>
        <time>2017-06-29T23:25:07Z</time>
      </trkpt>
      <trkpt lat="48.04514" lon="3.32037">
        <ele>73</ele>
        <time>2017-06-29T23:27:07Z</time>
      </trkpt>
      <trkpt lat="48.04579" lon="3.31966">
        <ele>73.121094</ele>
        <time>2017-06-29T23:29:07Z</time>
      </trkpt>
    </trkseg>
  </trk>
</gpx>